Time;durP1;ratioP1;P1;durP2;ratioP2;P2;SDS_P1;SDS_P2;PMS_P1;PMS_P2;Temp;Humidity;BMP_temperature;BMP_pressure;BME280_temperature;BME280_humidity;BME280_pressure;Samples;Min_cycle;Max_cycle;Signal;HPM_P1;HPM_P2
2021/04/24 00:02:02;;;;;;;5.15;1.83;;;;;;;6.03;49.73;101652.91;3574728;40;20092;-44
2021/04/24 00:04:29;;;;;;;3.97;1.67;;;;;;;6.03;49.56;101652.91;3574330;40;20092;-48
2021/04/24 00:06:55;;;;;;;3.55;1.65;;;;;;;6.04;49.36;101653.00;3574374;40;20089;-44
2021/04/24 00:09:22;;;;;;;5.05;1.95;;;;;;;6.03;50.40;101647.81;3574516;40;20714;-46
2021/04/24 00:11:49;;;;;;;3.50;1.63;;;;;;;6.05;50.27;101653.88;3574583;40;20072;-45
2021/04/24 00:14:15;;;;;;;10.10;2.35;;;;;;;6.04;50.53;101650.44;3574147;40;20077;-45
2021/04/24 00:16:42;;;;;;;5.18;2.05;;;;;;;5.89;49.76;101649.50;3565118;40;20129;-44
2021/04/24 00:19:08;;;;;;;3.75;1.70;;;;;;;5.79;51.26;101642.13;3573813;40;20404;-46
2021/04/24 00:21:35;;;;;;;2.33;1.30;;;;;;;5.82;50.85;101648.28;3574385;40;20063;-45
2021/04/24 00:24:02;;;;;;;4.18;2.10;;;;;;;5.60;52.01;101645.22;3574333;40;20053;-44
2021/04/24 00:26:29;;;;;;;5.07;2.05;;;;;;;5.72;51.71;101643.41;3576787;40;20092;-47
2021/04/24 00:28:55;;;;;;;3.38;1.73;;;;;;;5.34;52.30;101641.94;3576717;40;20060;-44
2021/04/24 00:31:22;;;;;;;2.78;1.80;;;;;;;5.46;52.84;101636.75;3574535;40;20562;-43
2021/04/24 00:33:49;;;;;;;4.97;1.67;;;;;;;5.43;53.23;101641.63;3574261;40;20085;-45
2021/04/24 00:36:16;;;;;;;7.25;2.00;;;;;;;5.48;53.13;101644.47;3574315;40;20070;-45
2021/04/24 00:38:42;;;;;;;2.65;1.85;;;;;;;5.24;53.61;101643.81;3574553;40;20065;-44
2021/04/24 00:41:11;;;;;;;2.92;2.17;;;;;;;5.10;55.24;101642.97;3574181;40;20041;-45
2021/04/24 00:43:37;;;;;;;6.03;2.33;;;;;;;4.91;55.85;101642.59;3574122;40;20096;-44
2021/04/24 00:46:11;;;;;;;5.70;2.33;;;;;;;4.71;56.31;101647.25;3574569;40;20056;-44
2021/04/24 00:48:39;;;;;;;3.92;2.05;;;;;;;4.46;57.13;101633.75;3574177;40;20287;-43
2021/04/24 00:51:07;;;;;;;4.43;2.00;;;;;;;4.49;57.15;101639.91;3574267;40;20295;-44
2021/04/24 00:53:34;;;;;;;6.85;2.20;;;;;;;4.79;56.13;101642.66;3574204;40;20048;-43
2021/04/24 00:56:01;;;;;;;5.32;2.08;;;;;;;4.66;56.60;101640.13;3574286;40;20093;-44
2021/04/24 00:58:28;;;;;;;8.93;1.88;;;;;;;4.83;56.41;101653.13;3576083;40;20442;-46
2021/04/24 01:00:54;;;;;;;3.10;1.70;;;;;;;4.78;55.83;101644.31;3576508;40;20073;-46
2021/04/24 01:03:21;;;;;;;4.25;1.75;;;;;;;4.30;57.45;101634.44;3576344;40;20115;-44
2021/04/24 01:05:50;;;;;;;2.20;1.85;;;;;;;4.18;58.02;101634.47;3574660;40;20052;-46
2021/04/24 01:08:16;;;;;;;2.42;1.40;;;;;;;4.29;57.70;101645.31;3565947;40;20056;-43
2021/04/24 01:10:44;;;;;;;2.92;1.60;;;;;;;4.10;58.20;101643.22;3574288;40;20056;-43
2021/04/24 01:13:14;;;;;;;3.80;1.98;;;;;;;4.14;58.14;101632.50;3574210;40;20044;-44
2021/04/24 01:15:41;;;;;;;6.38;2.00;;;;;;;4.17;59.06;101637.78;3574108;40;20096;-44
2021/04/24 01:18:08;;;;;;;4.38;1.90;;;;;;;4.21;59.52;101629.63;3573257;40;20076;-47
2021/04/24 01:20:36;;;;;;;5.10;2.50;;;;;;;4.08;60.39;101625.38;3573957;40;20088;-47
2021/04/24 01:23:05;;;;;;;5.78;2.30;;;;;;;4.29;60.56;101623.38;3574007;40;20321;-46
2021/04/24 01:25:38;;;;;;;4.57;2.15;;;;;;;4.38;61.07;101622.22;3574166;40;20106;-44
2021/04/24 01:28:06;;;;;;;5.78;1.92;;;;;;;4.09;62.76;101628.78;3574095;40;20132;-46
2021/04/24 01:30:38;;;;;;;3.65;1.92;;;;;;;4.22;63.12;101627.97;3574366;40;20112;-43
2021/04/24 01:33:09;;;;;;;4.43;2.50;;;;;;;4.49;62.91;101626.38;3573586;40;20063;-46
2021/04/24 01:35:37;;;;;;;7.57;3.03;;;;;;;4.25;63.48;101623.06;3573852;40;20057;-45
2021/04/24 01:38:04;;;;;;;5.57;2.22;;;;;;;4.48;63.33;101622.91;3575968;40;20430;-50
2021/04/24 01:40:31;;;;;;;5.50;2.50;;;;;;;4.59;62.98;101631.25;3577583;40;20081;-44
2021/04/24 01:42:58;;;;;;;4.15;1.90;;;;;;;4.79;62.46;101627.44;3573840;40;20164;-44
2021/04/24 01:45:26;;;;;;;5.82;2.30;;;;;;;4.72;62.39;101628.72;3574051;40;21432;-43
2021/04/24 01:47:53;;;;;;;4.82;2.28;;;;;;;4.30;63.60;101619.22;3573885;40;20063;-43
2021/04/24 01:50:29;;;;;;;5.78;2.40;;;;;;;4.37;63.08;101618.81;3572266;40;20047;-44
2021/04/24 01:52:56;;;;;;;;;;;;;;;4.22;63.71;101615.28;3561400;40;20081;-43
2021/04/24 01:55:31;;;;;;;3.50;2.20;;;;;;;3.87;64.90;101618.88;3573915;40;19955;-44
2021/04/24 01:57:59;;;;;;;3.27;1.43;;;;;;;3.96;63.90;101618.59;3573930;40;20085;-42
2021/04/24 02:00:35;;;;;;;3.15;2.17;;;;;;;3.80;63.76;101609.13;3573730;40;20914;-45
2021/04/24 02:03:06;;;;;;;4.75;2.42;;;;;;;3.78;63.80;101613.19;3573769;40;20052;-44
2021/04/24 02:05:33;;;;;;;5.38;2.05;;;;;;;3.77;63.84;101619.91;3573819;40;20059;-43
2021/04/24 02:08:04;;;;;;;4.63;2.28;;;;;;;3.48;65.21;101617.06;3573626;40;20112;-44
2021/04/24 02:10:30;;;;;;;5.05;2.75;;;;;;;3.38;65.97;101612.13;3574007;40;20057;-42
2021/04/24 02:13:00;;;;;;;5.07;2.47;;;;;;;3.60;65.65;101615.34;3573342;40;20061;-43
2021/04/24 02:15:27;;;;;;;5.60;2.33;;;;;;;3.92;65.32;101614.97;3573622;40;20053;-44
2021/04/24 02:17:54;;;;;;;7.82;2.40;;;;;;;3.68;67.29;101614.22;3573412;40;20081;-46
2021/04/24 02:20:21;;;;;;;6.03;2.47;;;;;;;3.66;67.84;101622.50;3572067;40;20052;-42
2021/04/24 02:22:48;;;;;;;6.63;3.10;;;;;;;3.84;67.98;101618.69;3573453;40;20041;-46
2021/04/24 02:25:17;;;;;;;6.43;2.75;;;;;;;3.54;68.97;101612.41;3574036;40;20377;-44
2021/04/24 02:27:43;;;;;;;8.02;2.97;;;;;;;3.57;69.85;101610.09;3573753;40;20060;-43
2021/04/24 02:30:14;;;;;;;7.35;3.15;;;;;;;3.50;70.97;101613.81;3573882;40;20398;-43
2021/04/24 02:32:41;;;;;;;7.68;3.60;;;;;;;3.72;70.77;101613.66;3564006;40;20176;-42
2021/04/24 02:35:10;;;;;;;8.63;3.38;;;;;;;3.39;71.31;101598.69;3572827;40;20081;-43
2021/04/24 02:37:37;;;;;;;5.72;2.30;;;;;;;3.92;70.56;101599.78;3573720;40;20142;-45
2021/04/24 02:40:15;;;;;;;7.57;2.78;;;;;;;3.88;70.59;101602.88;3573588;40;20413;-43
2021/04/24 02:42:42;;;;;;;7.20;3.10;;;;;;;3.80;70.84;101604.91;3573552;40;20097;-44
2021/04/24 02:45:10;;;;;;;5.18;3.08;;;;;;;3.61;72.02;101595.97;3572931;40;20053;-44
2021/04/24 02:47:37;;;;;;;6.90;3.03;;;;;;;3.52;73.02;101599.63;3573415;40;20068;-43
2021/04/24 02:50:06;;;;;;;9.82;3.25;;;;;;;3.61;72.87;101601.06;3575393;40;20097;-48
2021/04/24 02:52:33;;;;;;;9.70;3.55;;;;;;;3.53;73.44;101606.44;3576593;40;20049;-44
2021/04/24 02:55:00;;;;;;;5.10;3.25;;;;;;;3.71;73.12;101599.22;3573559;40;20048;-44
2021/04/24 02:57:27;;;;;;;6.13;3.25;;;;;;;3.94;72.81;101595.72;3573600;40;20049;-45
2021/04/24 02:59:54;;;;;;;9.15;3.53;;;;;;;3.52;74.64;101602.16;3573607;40;20067;-45
2021/04/24 03:02:20;;;;;;;8.68;3.80;;;;;;;3.36;76.00;101601.00;3573342;40;20052;-43
2021/04/24 03:04:47;;;;;;;9.13;3.70;;;;;;;3.46;76.48;101600.84;3573647;40;20048;-43
2021/04/24 03:07:14;;;;;;;9.82;3.42;;;;;;;3.42;77.03;101603.94;3573446;40;20119;-43
2021/04/24 03:09:40;;;;;;;8.57;3.15;;;;;;;3.35;77.45;101595.06;3573637;40;20521;-45
2021/04/24 03:12:07;;;;;;;10.85;3.63;;;;;;;3.47;77.46;101593.38;3572563;40;20061;-43
2021/04/24 03:14:34;;;;;;;10.13;4.65;;;;;;;3.38;77.43;101595.28;3573721;40;20076;-43
2021/04/24 03:17:01;;;;;;;13.60;4.45;;;;;;;3.68;76.70;101601.56;3573577;40;20064;-43
2021/04/24 03:19:28;;;;;;;13.63;5.15;;;;;;;3.60;77.35;101595.06;3573391;40;20057;-44
2021/04/24 03:21:54;;;;;;;11.48;4.15;;;;;;;3.39;78.07;101599.56;3573368;40;20041;-43
2021/04/24 03:24:21;;;;;;;8.57;3.78;;;;;;;3.53;77.92;101595.44;3573195;40;20045;-44
2021/04/24 03:26:47;;;;;;;9.90;3.85;;;;;;;3.50;78.59;101593.56;3575497;40;20077;-45
2021/04/24 03:29:14;;;;;;;9.95;4.32;;;;;;;3.32;79.52;101598.25;3576650;40;20065;-45
2021/04/24 03:31:40;;;;;;;12.65;3.92;;;;;;;3.36;79.69;101596.81;3576274;40;20096;-47
2021/04/24 03:34:07;;;;;;;11.35;4.47;;;;;;;3.48;79.53;101596.78;3573040;40;20134;-44
2021/04/24 03:36:34;;;;;;;6.43;3.88;;;;;;;3.30;80.03;101594.75;3573950;40;20435;-44
2021/04/24 03:39:00;;;;;;;9.32;3.85;;;;;;;3.45;79.81;101588.97;3573150;40;20084;-42
2021/04/24 03:41:28;;;;;;;10.23;4.22;;;;;;;3.43;80.16;101593.94;3573346;40;20081;-43
2021/04/24 03:43:55;;;;;;;7.20;3.90;;;;;;;3.22;81.02;101593.31;3573214;40;20057;-43
2021/04/24 03:46:21;;;;;;;12.88;4.50;;;;;;;3.27;81.65;101593.66;3573143;40;20081;-43
2021/04/24 03:48:48;;;;;;;7.65;3.60;;;;;;;3.36;80.88;101598.47;3572851;40;20044;-43
2021/04/24 03:51:15;;;;;;;9.27;4.00;;;;;;;3.16;81.60;101589.50;3573200;40;20041;-43
2021/04/24 03:53:41;;;;;;;13.20;4.85;;;;;;;3.35;80.97;101587.47;3576436;40;20072;-43
2021/04/24 03:56:08;;;;;;;12.80;4.43;;;;;;;3.35;81.44;101600.13;3576539;40;20060;-43
2021/04/24 03:58:34;;;;;;;9.10;4.57;;;;;;;3.46;81.04;101596.66;3576177;40;20111;-44
2021/04/24 04:01:01;;;;;;;8.77;3.75;;;;;;;3.31;81.57;101600.69;3574126;40;20421;-46
2021/04/24 04:03:27;;;;;;;13.00;4.05;;;;;;;3.40;81.96;101596.25;3577858;40;20048;-43
2021/04/24 04:05:54;;;;;;;13.60;4.97;;;;;;;3.05;83.77;101594.69;3573286;40;20077;-43
2021/04/24 04:08:20;;;;;;;12.43;5.15;;;;;;;3.53;82.47;101603.03;3573188;40;20092;-43
2021/04/24 04:10:50;;;;;;;15.00;4.60;;;;;;;3.43;82.52;101600.66;3572907;40;20076;-43
2021/04/24 04:13:17;;;;;;;13.25;4.70;;;;;;;3.20;84.35;101602.47;3572725;40;20463;-43
2021/04/24 04:15:44;;;;;;;7.82;4.07;;;;;;;3.15;84.06;101602.94;3572672;40;20067;-43
2021/04/24 04:18:16;;;;;;;10.93;4.57;;;;;;;3.03;84.61;101590.28;3572810;40;20155;-43
2021/04/24 04:20:46;;;;;;;11.35;4.85;;;;;;;3.12;84.51;101598.53;3572797;40;20064;-43
2021/04/24 04:23:23;;;;;;;15.85;4.95;;;;;;;3.30;83.29;101601.47;3570805;40;20075;-43
2021/04/24 04:25:52;;;;;;;14.60;4.53;;;;;;;3.31;83.40;101601.56;3571661;40;20072;-43
2021/04/24 04:28:19;;;;;;;15.23;4.97;;;;;;;3.15;84.39;101597.88;3572701;40;20079;-44
2021/04/24 04:30:48;;;;;;;10.55;5.00;;;;;;;3.10;84.67;101599.19;3571281;40;20047;-43
2021/04/24 04:33:15;;;;;;;12.65;6.00;;;;;;;3.03;85.46;101603.81;3572711;40;20079;-43
2021/04/24 04:35:42;;;;;;;14.25;5.43;;;;;;;3.18;85.65;101611.59;3572784;40;20071;-45
2021/04/24 04:38:09;;;;;;;13.73;5.80;;;;;;;3.60;83.62;101606.88;3572084;40;20112;-43
2021/04/24 04:40:36;;;;;;;11.98;5.10;;;;;;;3.35;84.23;101616.97;3574145;40;20044;-43
2021/04/24 04:43:03;;;;;;;14.88;5.38;;;;;;;3.34;85.01;101612.69;3574196;40;20057;-43
2021/04/24 04:45:30;;;;;;;11.15;4.93;;;;;;;3.37;85.23;101608.69;3574232;40;20092;-43
2021/04/24 04:47:57;;;;;;;13.48;5.55;;;;;;;3.34;85.63;101615.22;3574628;40;20770;-44
2021/04/24 04:50:27;;;;;;;14.00;5.65;;;;;;;3.25;86.85;101615.44;3574219;40;20060;-44
2021/04/24 04:52:56;;;;;;;13.82;6.28;;;;;;;3.37;86.54;101612.88;3574209;40;20065;-43
2021/04/24 04:55:23;;;;;;;11.52;5.05;;;;;;;3.73;85.42;101622.13;3574356;40;20076;-45
2021/04/24 04:57:50;;;;;;;15.88;6.63;;;;;;;3.71;85.77;101613.56;3574182;40;20049;-45
2021/04/24 05:00:19;;;;;;;13.20;6.30;;;;;;;3.70;85.74;101622.81;3574058;40;20077;-42
2021/04/24 05:02:46;;;;;;;13.73;6.63;;;;;;;3.74;85.64;101629.81;3572427;40;20053;-45
2021/04/24 05:05:14;;;;;;;17.65;6.28;;;;;;;4.17;84.27;101640.34;3574033;40;20128;-42
2021/04/24 05:07:45;;;;;;;11.70;6.50;;;;;;;4.23;84.56;101639.84;3574178;40;20108;-43
2021/04/24 05:10:25;;;;;;;13.10;5.93;;;;;;;4.24;84.07;101641.59;3572528;40;20041;-46
2021/04/24 05:12:52;;;;;;;13.63;6.22;;;;;;;4.11;84.75;101636.50;3572917;40;20059;-47
2021/04/24 05:15:20;;;;;;;18.00;6.38;;;;;;;4.48;82.82;101645.75;3572777;40;20057;-45
2021/04/24 05:17:47;;;;;;;13.88;6.55;;;;;;;4.41;83.54;101642.72;3572770;40;20303;-45
2021/04/24 05:20:15;;;;;;;18.98;6.70;;;;;;;4.31;83.65;101641.25;3574341;40;20096;-44
2021/04/24 05:22:46;;;;;;;15.73;6.60;;;;;;;4.41;83.11;101640.19;3573693;40;20088;-43
2021/04/24 05:25:14;;;;;;;14.90;6.70;;;;;;;4.53;83.41;101643.50;3574405;40;20085;-46
2021/04/24 05:27:44;;;;;;;15.02;8.35;;;;;;;4.65;82.92;101649.38;3574252;40;20072;-43
2021/04/24 05:30:12;;;;;;;15.57;6.40;;;;;;;4.83;82.29;101650.56;3573642;40;20064;-43
2021/04/24 05:32:39;;;;;;;15.05;6.80;;;;;;;4.74;82.15;101641.50;3573763;40;20049;-44
2021/04/24 05:35:06;;;;;;;17.15;7.43;;;;;;;4.71;82.54;101646.38;3574374;40;20062;-43
2021/04/24 05:37:33;;;;;;;15.60;7.13;;;;;;;4.72;82.12;101648.16;3574473;40;20061;-42
2021/04/24 05:39:59;;;;;;;16.77;6.75;;;;;;;4.68;83.26;101642.00;3573986;40;20081;-43
2021/04/24 05:42:30;;;;;;;18.17;7.85;;;;;;;4.82;82.74;101638.69;3573955;40;20061;-43
2021/04/24 05:44:57;;;;;;;20.60;8.65;;;;;;;4.86;83.11;101639.75;3574260;40;20080;-45
2021/04/24 05:47:24;;;;;;;16.83;7.38;;;;;;;5.13;81.61;101644.78;3573997;40;20449;-45
2021/04/24 05:49:51;;;;;;;23.25;9.13;;;;;;;5.03;81.34;101639.13;3574098;40;20334;-43
2021/04/24 05:52:18;;;;;;;21.52;8.27;;;;;;;5.27;80.58;101649.06;3573288;40;20071;-43
2021/04/24 05:54:44;;;;;;;20.60;10.18;;;;;;;5.26;81.40;101648.19;3578208;40;20464;-48
2021/04/24 05:57:11;;;;;;;19.98;9.23;;;;;;;5.25;80.70;101651.53;3580771;40;20085;-43
2021/04/24 05:59:38;;;;;;;19.02;9.25;;;;;;;5.31;81.22;101654.44;3579743;40;20060;-43
2021/04/24 06:02:04;;;;;;;19.98;8.32;;;;;;;5.34;81.23;101659.72;3575518;40;20076;-44
2021/04/24 06:04:31;;;;;;;19.10;8.82;;;;;;;5.59;80.43;101663.75;3574136;40;20052;-42
2021/04/24 06:07:00;;;;;;;16.90;8.35;;;;;;;6.00;79.29;101663.75;3573819;40;20049;-43
2021/04/24 06:09:27;;;;;;;18.77;8.25;;;;;;;5.78;79.27;101664.13;3573850;40;20084;-43
2021/04/24 06:11:53;;;;;;;16.65;8.48;;;;;;;5.96;78.04;101661.84;3573850;40;20352;-43
2021/04/24 06:14:20;;;;;;;14.10;7.78;;;;;;;6.13;77.54;101660.28;3571889;40;20116;-44
2021/04/24 06:16:46;;;;;;;20.23;8.48;;;;;;;6.20;77.07;101666.63;3572393;40;20053;-43
2021/04/24 06:19:13;;;;;;;19.90;8.82;;;;;;;6.25;76.14;101671.19;3573875;40;20045;-44
2021/04/24 06:21:39;;;;;;;17.85;9.30;;;;;;;6.40;75.67;101667.78;3573797;40;20093;-45
2021/04/24 06:24:07;;;;;;;20.50;9.25;;;;;;;6.64;75.29;101674.28;3572608;40;20074;-42
2021/04/24 06:26:33;;;;;;;19.20;8.75;;;;;;;6.84;73.82;101665.22;3572948;40;20104;-44
2021/04/24 06:29:00;;;;;;;14.65;8.90;;;;;;;6.77;73.67;101668.22;3573711;40;20075;-46
2021/04/24 06:31:26;;;;;;;20.85;9.23;;;;;;;6.95;72.95;101671.81;3573614;40;20037;-41
2021/04/24 06:33:53;;;;;;;20.70;9.30;;;;;;;6.97;74.05;101669.34;3573443;40;20053;-42
2021/04/24 06:36:19;;;;;;;18.80;9.57;;;;;;;7.23;72.08;101681.00;3572030;40;20295;-41
2021/04/24 06:38:46;;;;;;;15.70;8.50;;;;;;;7.60;71.45;101673.66;3572332;40;20157;-41
2021/04/24 06:41:13;;;;;;;19.80;8.80;;;;;;;7.62;69.86;101682.25;3573675;40;20060;-41
2021/04/24 06:43:39;;;;;;;20.63;10.18;;;;;;;7.52;70.22;101678.34;3573507;40;20056;-41
2021/04/24 06:46:06;;;;;;;19.88;9.50;;;;;;;7.82;69.64;101671.47;3574001;40;20052;-41
2021/04/24 06:48:33;;;;;;;21.77;9.15;;;;;;;8.03;69.89;101679.34;3573844;40;20055;-40
2021/04/24 06:51:00;;;;;;;21.05;9.77;;;;;;;7.97;67.83;101678.16;3573879;40;20071;-41
2021/04/24 06:53:27;;;;;;;21.05;10.20;;;;;;;7.91;69.00;101678.72;3573609;40;20331;-41
2021/04/24 06:55:54;;;;;;;17.40;9.60;;;;;;;8.48;67.30;101682.50;3573455;40;20093;-41
2021/04/24 06:58:25;;;;;;;21.02;10.13;;;;;;;9.22;65.30;101678.41;3572069;40;20049;-41
2021/04/24 07:00:55;;;;;;;17.08;9.10;;;;;;;10.19;60.86;101685.38;3573680;40;20056;-41
2021/04/24 07:03:23;;;;;;;17.30;9.35;;;;;;;10.29;58.74;101681.56;3571704;40;20077;-40
2021/04/24 07:05:50;;;;;;;18.58;9.20;;;;;;;10.59;58.82;101682.00;3573933;40;20067;-40
2021/04/24 07:08:17;;;;;;;17.98;9.05;;;;;;;11.41;56.04;101681.81;3573596;40;20049;-41
2021/04/24 07:10:44;;;;;;;19.75;8.43;;;;;;;10.12;58.66;101688.50;3573407;40;20045;-41
2021/04/24 07:13:11;;;;;;;13.70;6.97;;;;;;;9.67;60.06;101684.78;3573397;40;20081;-43
2021/04/24 07:15:38;;;;;;;16.17;7.75;;;;;;;9.15;62.27;101684.91;3564249;40;20218;-41
2021/04/24 07:18:05;;;;;;;15.23;7.72;;;;;;;9.13;63.19;101682.28;3573823;40;20086;-41
2021/04/24 07:20:32;;;;;;;15.95;7.85;;;;;;;9.06;63.00;101685.38;3573553;40;20074;-41
2021/04/24 07:22:59;;;;;;;15.05;7.75;;;;;;;9.00;62.97;101679.94;3573273;40;20061;-41
2021/04/24 07:25:29;;;;;;;17.10;7.20;;;;;;;8.74;64.45;101682.94;3573105;40;20057;-41
2021/04/24 07:27:56;;;;;;;13.13;7.57;;;;;;;8.79;63.46;101671.28;3573704;40;20495;-41
2021/04/24 07:30:24;;;;;;;17.67;7.72;;;;;;;8.89;63.44;101676.88;3573537;40;20135;-42
2021/04/24 07:32:50;;;;;;;16.08;7.70;;;;;;;8.82;62.74;101677.38;3573478;40;20086;-41
2021/04/24 07:35:17;;;;;;;12.60;7.20;;;;;;;9.30;62.14;101675.41;3573585;40;20060;-40
2021/04/24 07:37:44;;;;;;;14.45;7.60;;;;;;;9.11;61.39;101677.91;3572583;40;20792;-41
2021/04/24 07:40:13;;;;;;;11.65;5.95;;;;;;;9.35;59.75;101681.63;3572285;40;20056;-40
2021/04/24 07:42:40;;;;;;;12.60;6.15;;;;;;;9.63;59.47;101682.88;3573332;40;20049;-41
2021/04/24 07:45:07;;;;;;;13.23;6.78;;;;;;;9.67;58.49;101683.09;3572925;40;20089;-41
2021/04/24 07:47:34;;;;;;;14.43;6.50;;;;;;;9.97;58.09;101687.81;3572948;40;20061;-41
2021/04/24 07:50:01;;;;;;;12.18;6.53;;;;;;;10.01;57.90;101687.16;3573572;40;20061;-40
2021/04/24 07:52:28;;;;;;;12.55;6.68;;;;;;;10.16;58.23;101687.81;3573038;40;20105;-40
2021/04/24 07:54:55;;;;;;;11.98;5.75;;;;;;;9.65;57.95;101684.69;3573742;40;20049;-41
2021/04/24 07:57:22;;;;;;;10.80;6.20;;;;;;;9.80;58.49;101679.41;3573465;40;20084;-41
2021/04/24 07:59:48;;;;;;;12.48;6.53;;;;;;;10.05;57.58;101686.47;3573435;40;20089;-41
2021/04/24 08:02:18;;;;;;;11.60;6.05;;;;;;;9.68;57.33;101691.63;3573667;40;20069;-41
2021/04/24 08:04:45;;;;;;;12.63;6.13;;;;;;;10.13;57.38;101689.38;3573666;40;20126;-42
2021/04/24 08:07:11;;;;;;;13.60;6.40;;;;;;;9.93;58.30;101689.34;3573585;40;20085;-43
2021/04/24 08:09:39;;;;;;;12.98;6.57;;;;;;;10.26;57.84;101681.47;3573522;40;20469;-43
2021/04/24 08:12:07;;;;;;;11.77;6.95;;;;;;;10.57;57.24;101688.72;3576291;40;20063;-42
2021/04/24 08:14:34;;;;;;;9.63;4.72;;;;;;;10.26;55.05;101689.13;3578222;40;20064;-41
2021/04/24 08:17:01;;;;;;;8.40;5.53;;;;;;;10.67;55.76;101684.84;3577574;40;20048;-44
2021/04/24 08:19:28;;;;;;;11.38;5.60;;;;;;;10.73;55.29;101694.50;3575470;40;20069;-42
2021/04/24 08:21:56;;;;;;;10.55;5.47;;;;;;;10.75;53.22;101680.94;3574807;40;20065;-40
2021/04/24 08:24:23;;;;;;;10.85;5.47;;;;;;;11.15;52.95;101687.66;3574799;40;20730;-40
2021/04/24 08:26:50;;;;;;;9.55;5.47;;;;;;;11.06;53.43;101689.84;3575668;40;20053;-40
2021/04/24 08:29:18;;;;;;;8.52;4.75;;;;;;;10.89;52.67;101686.59;3574935;40;20130;-42
2021/04/24 08:31:46;;;;;;;10.15;4.85;;;;;;;11.27;52.26;101683.00;3574611;40;20052;-41
2021/04/24 08:34:20;;;;;;;8.32;4.55;;;;;;;11.34;51.08;101687.56;3574199;40;20123;-40
2021/04/24 08:36:49;;;;;;;8.48;5.07;;;;;;;11.07;53.06;101681.34;3573204;40;20055;-42
2021/04/24 08:39:17;;;;;;;9.60;5.45;;;;;;;11.93;51.73;101680.38;3574653;40;20057;-41
2021/04/24 08:41:46;;;;;;;6.95;4.30;;;;;;;13.10;45.70;101686.03;3574361;40;20427;-41
2021/04/24 08:44:19;;;;;;;9.40;4.50;;;;;;;13.53;45.33;101684.78;3574312;40;20048;-41
2021/04/24 08:46:51;;;;;;;7.90;4.35;;;;;;;14.34;43.27;101691.34;3572996;40;20057;-41
2021/04/24 08:49:23;;;;;;;8.00;4.43;;;;;;;14.61;42.86;101676.63;3574520;40;20064;-41
2021/04/24 08:51:53;;;;;;;9.57;5.03;;;;;;;14.48;44.50;101695.19;3572282;40;20423;-41
2021/04/24 08:54:23;;;;;;;8.48;4.57;;;;;;;13.31;45.08;101700.41;3574516;40;20067;-41
2021/04/24 08:56:51;;;;;;;7.18;4.53;;;;;;;12.48;46.55;101698.59;3564332;40;20631;-41
2021/04/24 08:59:19;;;;;;;10.68;4.53;;;;;;;12.19;49.48;101692.41;3574271;40;20054;-41
2021/04/24 09:01:46;;;;;;;8.48;4.35;;;;;;;11.89;48.48;101694.78;3573024;40;20661;-41
2021/04/24 09:04:13;;;;;;;6.20;4.13;;;;;;;11.75;48.97;101695.06;3571610;40;20049;-41
2021/04/24 09:06:40;;;;;;;12.50;5.05;;;;;;;12.17;48.23;101691.50;3572217;40;20446;-42
2021/04/24 09:09:10;;;;;;;7.00;4.28;;;;;;;12.04;48.67;101698.72;3572007;40;20081;-41
2021/04/24 09:11:45;;;;;;;7.80;4.35;;;;;;;11.68;48.51;101689.69;3572754;40;20065;-40
2021/04/24 09:14:16;;;;;;;8.35;4.10;;;;;;;11.46;49.06;101695.72;3571107;40;20045;-41
2021/04/24 09:16:44;;;;;;;8.00;4.60;;;;;;;11.57;49.65;101685.88;3572949;40;20053;-41
2021/04/24 09:19:36;;;;;;;9.43;4.68;;;;;;;11.59;48.75;101698.75;3562789;40;20044;-42
2021/04/24 09:22:13;;;;;;;7.53;4.40;;;;;;;12.13;47.70;101701.63;3573667;40;20045;-41
2021/04/24 09:24:42;;;;;;;8.52;5.35;;;;;;;12.60;47.22;101700.69;3573357;40;20053;-43
2021/04/24 09:27:10;;;;;;;9.73;5.05;;;;;;;12.69;46.09;101700.13;3573124;40;20057;-43
2021/04/24 09:30:09;;;;;;;8.15;4.38;;;;;;;12.47;47.20;101699.38;3573118;40;20068;-42
2021/04/24 09:32:36;;;;;;;7.05;4.53;;;;;;;12.45;47.79;101702.75;3571881;40;20059;-42
2021/04/24 09:35:03;;;;;;;8.88;5.50;;;;;;;13.38;46.39;101705.78;3571760;40;20053;-42
2021/04/24 09:37:30;;;;;;;8.73;4.65;;;;;;;13.50;43.94;101697.59;3573268;40;20130;-42
2021/04/24 09:39:56;;;;;;;8.15;4.53;;;;;;;13.34;45.64;101693.66;3574154;40;20355;-45
2021/04/24 09:42:34;;;;;;;9.50;4.85;;;;;;;13.52;45.60;101692.47;3573319;40;20462;-44
2021/04/24 09:45:08;;;;;;;9.57;5.13;;;;;;;13.71;44.63;101680.16;3573869;40;20855;-42
2021/04/24 09:47:40;;;;;;;12.18;5.32;;;;;;;14.16;43.40;101696.88;3573470;40;20097;-43
2021/04/24 09:50:15;;;;;;;10.38;5.32;;;;;;;15.00;40.24;101686.16;3573782;40;20044;-43
2021/04/24 09:52:42;;;;;;;8.88;4.80;;;;;;;16.73;37.22;101687.06;3573724;40;20060;-43
2021/04/24 09:55:14;;;;;;;7.03;4.93;;;;;;;17.26;35.28;101693.09;3573888;40;20047;-44
2021/04/24 09:57:42;;;;;;;9.27;4.50;;;;;;;20.72;29.13;101702.63;3574112;40;20060;-43
2021/04/24 10:00:15;;;;;;;6.75;3.95;;;;;;;20.67;30.00;101700.03;3573446;40;20096;-46
2021/04/24 10:02:46;;;;;;;8.85;4.32;;;;;;;21.88;28.49;101699.75;3573819;40;20068;-44
2021/04/24 10:05:21;;;;;;;6.85;4.38;;;;;;;22.16;27.52;101694.44;3572053;40;20065;-44
2021/04/24 10:07:50;;;;;;;6.68;4.10;;;;;;;20.66;29.81;101690.47;3572028;40;20045;-43
2021/04/24 10:10:29;;;;;;;8.15;4.22;;;;;;;21.37;28.29;101691.28;3562863;40;20037;-43
2021/04/24 10:13:04;;;;;;;8.25;4.65;;;;;;;18.91;30.72;101681.09;3571484;40;20040;-44
2021/04/24 10:15:34;;;;;;;6.60;4.32;;;;;;;17.91;32.83;101681.88;3573863;40;20053;-45
2021/04/24 10:18:01;;;;;;;6.82;3.47;;;;;;;16.67;35.03;101679.19;3573188;40;20079;-45
2021/04/24 10:20:28;;;;;;;7.75;4.03;;;;;;;16.80;35.09;101678.59;3573424;40;20052;-43
2021/04/24 10:22:55;;;;;;;7.68;3.80;;;;;;;16.22;36.06;101673.25;3570744;40;20061;-46
2021/04/24 10:25:24;;;;;;;4.65;3.67;;;;;;;16.62;35.54;101673.06;3572052;40;20143;-43
2021/04/24 10:27:52;;;;;;;6.13;4.07;;;;;;;19.30;32.71;101680.47;3571626;40;20084;-43
2021/04/24 10:30:20;;;;;;;7.07;3.45;;;;;;;20.66;29.79;101680.06;3572216;40;20068;-42
2021/04/24 10:32:53;;;;;;;5.30;3.05;;;;;;;20.95;27.50;101690.47;3563783;40;20060;-43
2021/04/24 10:35:21;;;;;;;5.00;3.20;;;;;;;20.74;28.93;101688.72;3571957;40;20037;-43
2021/04/24 10:37:54;;;;;;;5.30;2.85;;;;;;;20.37;29.89;101682.59;3571014;40;20146;-43
2021/04/24 10:40:21;;;;;;;5.88;3.10;;;;;;;18.07;31.39;101677.69;3570896;40;20112;-44
2021/04/24 10:42:56;;;;;;;5.28;2.83;;;;;;;18.35;31.67;101670.19;3569922;40;20516;-45
2021/04/24 10:45:33;;;;;;;6.30;3.30;;;;;;;18.54;32.20;101680.78;3571783;40;20059;-45
2021/04/24 10:48:01;;;;;;;6.32;3.15;;;;;;;17.49;33.13;101674.41;3573538;40;20350;-43
2021/04/24 10:50:40;;;;;;;5.78;3.00;;;;;;;15.99;36.89;101680.59;3573951;40;20097;-43
2021/04/24 10:53:26;;;;;;;7.82;3.63;;;;;;;16.79;36.22;101675.13;3572861;40;20096;-43
2021/04/24 10:55:55;;;;;;;5.47;3.15;;;;;;;16.36;37.66;101681.28;3572441;40;20056;-45
2021/04/24 10:58:24;;;;;;;6.22;3.90;;;;;;;16.02;37.34;101684.91;3571760;40;20056;-44
2021/04/24 11:00:59;;;;;;;7.88;3.78;;;;;;;17.48;35.81;101685.63;3572172;40;20319;-43
2021/04/24 11:03:35;;;;;;;8.17;3.67;;;;;;;17.28;35.84;101693.97;3571554;40;20080;-43
2021/04/24 11:06:12;;;;;;;6.65;3.53;;;;;;;18.55;33.30;101685.09;3573160;40;20101;-44
2021/04/24 11:08:40;;;;;;;5.25;3.13;;;;;;;18.68;33.22;101693.00;3573045;40;20052;-45
2021/04/24 11:11:13;;;;;;;9.43;4.05;;;;;;;18.81;32.18;101693.16;3571646;40;20115;-43
2021/04/24 11:13:49;;;;;;;6.78;3.17;;;;;;;21.33;27.98;101697.34;3570653;40;20330;-43
2021/04/24 11:16:32;;;;;;;5.07;3.72;;;;;;;20.97;27.82;101688.69;3572790;40;20049;-43
2021/04/24 11:19:13;;;;;;;5.22;3.28;;;;;;;22.49;25.96;101685.50;3571216;40;20085;-44
2021/04/24 11:21:47;;;;;;;5.55;3.10;;;;;;;22.98;25.48;101690.34;3570910;40;20048;-43
2021/04/24 11:24:15;;;;;;;5.18;3.28;;;;;;;24.38;24.04;101701.69;3571625;40;20115;-44
2021/04/24 11:26:41;;;;;;;7.38;3.85;;;;;;;25.78;21.33;101694.78;3572038;40;20112;-44
2021/04/24 11:29:21;;;;;;;9.82;3.80;;;;;;;23.84;23.97;101692.84;3569355;40;20073;-45
2021/04/24 11:31:56;;;;;;;3.97;2.75;;;;;;;22.95;23.54;101692.97;3570746;40;20485;-44
2021/04/24 11:34:32;;;;;;;4.28;2.90;;;;;;;26.05;19.78;101701.19;3571343;40;20082;-43